Time,TemperatureF,DewpointF,PressureIn,WindDirection,WindDirectionDegrees,WindSpeedMPH,WindSpeedGustMPH,Humidity,HourlyPrecipIn,Conditions,Clouds,dailyrainin,SolarRadiationWatts/m^2,SoftwareType,DateUTC
2013-05-01 00:01:00,38.0,29.0,-100.00,WNW,289,7.0,17.0,69,0.00,,,-99.99,0.000000,,2013-05-01 07:01:00,
2013-05-01 00:11:00,38.0,29.0,-100.00,WNW,289,7.0,17.0,69,0.00,,,-99.99,0.000000,,2013-05-01 07:11:00,
2013-05-01 00:32:00,37.0,28.0,-100.00,WNW,301,5.0,14.0,71,0.00,,,0.00,0.000000,,2013-05-01 07:32:00,
2013-05-01 00:42:00,37.0,28.0,-100.00,WNW,301,5.0,14.0,71,0.00,,,0.00,0.000000,,2013-05-01 07:42:00,
2013-05-01 00:52:00,37.0,28.0,-100.00,WNW,301,5.0,14.0,71,0.00,,,0.00,0.000000,,2013-05-01 07:52:00,
2013-05-01 01:01:00,37.0,28.0,-100.00,WNW,301,5.0,14.0,71,0.00,,,0.00,0.000000,,2013-05-01 08:01:00,
2013-05-01 01:11:00,37.0,28.0,-100.00,WNW,301,5.0,14.0,71,0.00,,,0.00,0.000000,,2013-05-01 08:11:00,
2013-05-01 01:42:00,35.0,29.0,-100.00,NW,322,5.0,9.0,79,0.00,,,0.00,0.000000,,2013-05-01 08:42:00,
2013-05-01 01:53:00,35.0,29.0,-100.00,NW,322,5.0,9.0,79,0.00,,,0.00,0.000000,,2013-05-01 08:53:00,
2013-05-01 02:01:00,35.0,29.0,-100.00,NW,322,5.0,9.0,79,0.00,,,0.00,0.000000,,2013-05-01 09:01:00,
2013-05-01 02:11:00,35.0,29.0,-100.00,NW,322,5.0,9.0,79,0.00,,,0.00,0.000000,,2013-05-01 09:11:00,
2013-05-01 02:33:00,35.0,30.0,-100.00,NW,310,4.0,9.0,82,0.00,,,-99.99,0.000000,,2013-05-01 09:33:00,
2013-05-01 02:43:00,35.0,30.0,-100.00,NW,310,4.0,9.0,82,0.00,,,-99.99,0.000000,,2013-05-01 09:43:00,
2013-05-01 02:53:00,35.0,30.0,-100.00,NW,310,4.0,9.0,82,0.00,,,-99.99,0.000000,,2013-05-01 09:53:00,
2013-05-01 03:02:00,35.0,30.0,-100.00,NW,310,4.0,9.0,82,0.00,,,-99.99,0.000000,,2013-05-01 10:02:00,
2013-05-01 03:12:00,35.0,30.0,-100.00,NW,310,4.0,9.0,82,0.00,,,-99.99,0.000000,,2013-05-01 10:12:00,
2013-05-01 03:33:00,34.0,30.0,-100.00,WNW,302,5.0,10.0,84,0.00,,,-99.99,0.000000,,2013-05-01 10:33:00,
2013-05-01 03:42:00,34.0,30.0,-100.00,WNW,302,5.0,10.0,84,0.00,,,-99.99,0.000000,,2013-05-01 10:42:00,
2013-05-01 03:52:00,34.0,30.0,-100.00,WNW,302,5.0,10.0,84,0.00,,,-99.99,0.000000,,2013-05-01 10:52:00,
2013-05-01 04:02:00,34.0,30.0,-100.00,WNW,302,5.0,10.0,84,0.00,,,-99.99,0.000000,,2013-05-01 11:02:00,
2013-05-01 04:11:00,34.0,30.0,-100.00,WNW,302,5.0,10.0,84,0.00,,,-99.99,0.000000,,2013-05-01 11:11:00,
2013-05-01 04:32:00,33.0,28.0,-100.00,NW,322,3.0,8.0,83,0.00,,,-99.99,0.000000,,2013-05-01 11:32:00,
2013-05-01 04:42:00,33.0,28.0,-100.00,NW,322,3.0,8.0,83,0.00,,,-99.99,0.000000,,2013-05-01 11:42:00,
2013-05-01 04:52:00,33.0,28.0,-100.00,NW,322,3.0,8.0,83,0.00,,,-99.99,0.000000,,2013-05-01 11:52:00,
2013-05-01 05:01:00,33.0,28.0,-100.00,NW,322,3.0,8.0,83,0.00,,,-99.99,0.000000,,2013-05-01 12:01:00,
2013-05-01 05:11:00,33.0,28.0,-100.00,NW,322,3.0,8.0,83,0.00,,,-99.99,0.000000,,2013-05-01 12:11:00,
2013-05-01 06:42:00,33.0,29.0,-100.00,NNW,332,4.0,6.0,86,-99.99,,,0.00,5.000000,,2013-05-01 13:42:00,
2013-05-01 06:52:00,33.0,29.0,-100.00,NNW,332,4.0,6.0,86,-99.99,,,0.00,5.000000,,2013-05-01 13:52:00,
2013-05-01 07:02:00,33.0,29.0,-100.00,NNW,332,4.0,6.0,86,-99.99,,,0.00,5.000000,,2013-05-01 14:02:00,
2013-05-01 07:11:00,33.0,29.0,-100.00,NNW,332,4.0,6.0,86,-99.99,,,0.00,5.000000,,2013-05-01 14:11:00,
2013-05-01 07:42:00,38.0,31.0,-100.00,ENE,60,1.0,6.0,75,0.00,,,-99.99,51.000000,,2013-05-01 14:42:00,
2013-05-01 07:52:00,38.0,31.0,-100.00,ENE,60,1.0,6.0,75,0.00,,,-99.99,51.000000,,2013-05-01 14:52:00,
2013-05-01 08:01:00,38.0,31.0,-100.00,ENE,60,1.0,6.0,75,0.00,,,-99.99,51.000000,,2013-05-01 15:01:00,
2013-05-01 08:11:00,38.0,31.0,-100.00,ENE,60,1.0,6.0,75,0.00,,,-99.99,51.000000,,2013-05-01 15:11:00,
2013-05-01 08:43:00,44.0,32.0,-100.00,ESE,111,2.0,5.0,63,0.00,,,-99.99,188.000000,,2013-05-01 15:43:00,
2013-05-01 08:53:00,44.0,32.0,-100.00,ESE,111,2.0,5.0,63,0.00,,,-99.99,188.000000,,2013-05-01 15:53:00,
2013-05-01 09:03:00,44.0,32.0,-100.00,ESE,111,2.0,5.0,63,0.00,,,-99.99,188.000000,,2013-05-01 16:03:00,
2013-05-01 09:12:00,44.0,32.0,-100.00,ESE,111,2.0,5.0,63,0.00,,,-99.99,188.000000,,2013-05-01 16:12:00,
2013-05-01 09:42:00,46.0,32.0,-100.00,ESE,123,3.0,6.0,57,0.00,,,0.00,391.000000,,2013-05-01 16:42:00,
2013-05-01 09:53:00,46.0,32.0,-100.00,ESE,123,3.0,6.0,57,0.00,,,0.00,391.000000,,2013-05-01 16:53:00,
2013-05-01 10:02:00,46.0,32.0,-100.00,ESE,123,3.0,6.0,57,0.00,,,0.00,391.000000,,2013-05-01 17:02:00,
2013-05-01 10:12:00,46.0,32.0,-100.00,ESE,123,3.0,6.0,57,0.00,,,0.00,391.000000,,2013-05-01 17:12:00,
2013-05-01 10:42:00,47.0,31.0,-100.00,ESE,105,5.0,10.0,54,0.00,,,-99.99,633.000000,,2013-05-01 17:42:00,
2013-05-01 10:52:00,47.0,31.0,-100.00,ESE,105,5.0,10.0,54,0.00,,,-99.99,633.000000,,2013-05-01 17:52:00,
2013-05-01 11:01:00,47.0,31.0,-100.00,ESE,105,5.0,10.0,54,0.00,,,-99.99,633.000000,,2013-05-01 18:01:00,
2013-05-01 11:11:00,47.0,31.0,-100.00,ESE,105,5.0,10.0,54,0.00,,,-99.99,633.000000,,2013-05-01 18:11:00,
2013-05-01 12:43:00,53.0,32.0,-100.00,ESE,115,5.0,12.0,45,-99.99,,,0.00,853.000000,,2013-05-01 19:43:00,
2013-05-01 12:52:00,53.0,32.0,-100.00,ESE,115,5.0,12.0,45,-99.99,,,0.00,853.000000,,2013-05-01 19:52:00,
2013-05-01 13:01:00,53.0,32.0,-100.00,ESE,115,5.0,12.0,45,-99.99,,,0.00,853.000000,,2013-05-01 20:01:00,
2013-05-01 13:11:00,53.0,32.0,-100.00,ESE,115,5.0,12.0,45,-99.99,,,0.00,853.000000,,2013-05-01 20:11:00,
2013-05-01 13:42:00,55.0,30.0,-100.00,East,91,6.0,14.0,38,0.00,,,0.00,879.000000,,2013-05-01 20:42:00,
2013-05-01 13:52:00,55.0,30.0,-100.00,East,91,6.0,14.0,38,0.00,,,0.00,879.000000,,2013-05-01 20:52:00,
2013-05-01 14:01:00,55.0,30.0,-100.00,East,91,6.0,14.0,38,0.00,,,0.00,879.000000,,2013-05-01 21:01:00,
2013-05-01 14:11:00,55.0,30.0,-100.00,East,91,6.0,14.0,38,0.00,,,0.00,879.000000,,2013-05-01 21:11:00,
2013-05-01 14:43:00,58.0,32.0,-100.00,ESE,108,4.0,11.0,37,0.00,,,-99.99,874.000000,,2013-05-01 21:43:00,
2013-05-01 14:53:00,58.0,32.0,-100.00,ESE,108,4.0,11.0,37,0.00,,,-99.99,874.000000,,2013-05-01 21:53:00,
2013-05-01 15:03:00,58.0,32.0,-100.00,ESE,108,4.0,11.0,37,0.00,,,-99.99,874.000000,,2013-05-01 22:03:00,
2013-05-01 15:12:00,58.0,32.0,-100.00,ESE,108,4.0,11.0,37,0.00,,,-99.99,874.000000,,2013-05-01 22:12:00,
2013-05-01 15:33:00,59.0,28.0,-100.00,ESE,104,5.0,13.0,31,0.00,,,0.00,810.000000,,2013-05-01 22:33:00,
2013-05-01 15:42:00,59.0,28.0,-100.00,ESE,104,5.0,13.0,31,0.00,,,0.00,810.000000,,2013-05-01 22:42:00,
2013-05-01 15:53:00,59.0,28.0,-100.00,ESE,104,5.0,13.0,31,0.00,,,0.00,810.000000,,2013-05-01 22:53:00,
2013-05-01 16:01:00,59.0,28.0,-100.00,ESE,104,5.0,13.0,31,0.00,,,0.00,810.000000,,2013-05-01 23:01:00,
2013-05-01 16:11:00,59.0,28.0,-100.00,ESE,104,5.0,13.0,31,0.00,,,0.00,810.000000,,2013-05-01 23:11:00,
2013-05-01 16:32:00,59.0,26.0,-100.00,East,96,6.0,12.0,28,0.00,,,0.00,639.000000,,2013-05-01 23:32:00,
2013-05-01 16:42:00,59.0,26.0,-100.00,East,96,6.0,12.0,28,0.00,,,0.00,639.000000,,2013-05-01 23:42:00,
2013-05-01 16:52:00,59.0,26.0,-100.00,East,96,6.0,12.0,28,0.00,,,0.00,639.000000,,2013-05-01 23:52:00,
2013-05-01 17:01:00,59.0,26.0,-100.00,East,96,6.0,12.0,28,0.00,,,0.00,639.000000,,2013-05-02 00:01:00,
2013-05-01 17:11:00,59.0,26.0,-100.00,East,96,6.0,12.0,28,0.00,,,0.00,639.000000,,2013-05-02 00:11:00,
2013-05-01 18:42:00,58.0,25.0,-100.00,East,97,5.0,11.0,28,-99.99,,,0.00,246.000000,,2013-05-02 01:42:00,
2013-05-01 18:52:00,58.0,25.0,-100.00,East,97,5.0,11.0,28,-99.99,,,0.00,246.000000,,2013-05-02 01:52:00,
2013-05-01 19:01:00,58.0,25.0,-100.00,East,97,5.0,11.0,28,-99.99,,,0.00,246.000000,,2013-05-02 02:01:00,
2013-05-01 19:11:00,58.0,25.0,-100.00,East,97,5.0,11.0,28,-99.99,,,0.00,246.000000,,2013-05-02 02:11:00,
2013-05-01 20:01:00,55.0,23.0,-100.00,East,97,5.0,8.0,28,0.00,,,0.00,155.000000,,2013-05-02 03:01:00,
2013-05-01 20:11:00,55.0,23.0,-100.00,East,97,5.0,8.0,28,0.00,,,0.00,155.000000,,2013-05-02 03:11:00,
2013-05-01 20:33:00,50.0,20.0,-100.00,ESE,103,4.0,7.0,30,0.00,,,0.00,24.000000,,2013-05-02 03:33:00,
2013-05-01 20:43:00,50.0,20.0,-100.00,ESE,103,4.0,7.0,30,0.00,,,0.00,24.000000,,2013-05-02 03:43:00,
2013-05-01 20:53:00,50.0,20.0,-100.00,ESE,103,4.0,7.0,30,0.00,,,0.00,24.000000,,2013-05-02 03:53:00,
2013-05-01 21:03:00,50.0,20.0,-100.00,ESE,103,4.0,7.0,30,0.00,,,0.00,24.000000,,2013-05-02 04:03:00,
2013-05-01 21:12:00,50.0,20.0,-100.00,ESE,103,4.0,7.0,30,0.00,,,0.00,24.000000,,2013-05-02 04:12:00,
2013-05-01 21:33:00,49.0,22.0,-100.00,ESE,102,4.0,9.0,34,0.00,,,0.00,1.000000,,2013-05-02 04:33:00,
2013-05-01 21:43:00,49.0,22.0,-100.00,ESE,102,4.0,9.0,34,0.00,,,0.00,1.000000,,2013-05-02 04:43:00,
2013-05-01 21:52:00,49.0,22.0,-100.00,ESE,102,4.0,9.0,34,0.00,,,0.00,1.000000,,2013-05-02 04:52:00,
2013-05-01 22:02:00,49.0,22.0,-100.00,ESE,102,4.0,9.0,34,0.00,,,0.00,1.000000,,2013-05-02 05:02:00,
2013-05-01 22:11:00,49.0,22.0,-100.00,ESE,102,4.0,9.0,34,0.00,,,0.00,1.000000,,2013-05-02 05:11:00,
2013-05-01 22:32:00,49.0,20.0,-100.00,East,101,5.0,9.0,32,0.00,,,0.00,0.000000,,2013-05-02 05:32:00,
2013-05-01 22:42:00,49.0,20.0,-100.00,East,101,5.0,9.0,32,0.00,,,0.00,0.000000,,2013-05-02 05:42:00,
2013-05-01 22:52:00,49.0,20.0,-100.00,East,101,5.0,9.0,32,0.00,,,0.00,0.000000,,2013-05-02 05:52:00,
2013-05-01 23:01:00,49.0,20.0,-100.00,East,101,5.0,9.0,32,0.00,,,0.00,0.000000,,2013-05-02 06:01:00,
2013-05-01 23:12:00,49.0,20.0,-100.00,East,101,5.0,9.0,32,0.00,,,0.00,0.000000,,2013-05-02 06:12:00,